Terminal Aerodrome Forecast
Issued by NWS Honolulu, HI

Home | Current Version | Previous Version | Text Only | Print | Product List | Glossary On
Versions: 1 2 3 4 5 6 7 8 9 10 11 12 13 14 15 16 17 18 19 20 21 22 23
000
FTPA31 PHFO 262321
TAFHNL
TAF
PHNL 262321Z 2700/2806 06015G21KT P6SM FEW025 SCT045 BKN060
     FM270800 06012KT P6SM FEW045 SCT060
     FM280000 06015G21KT P6SM FEW045 SCT060=

USA.gov is the U.S. government's official web portal to all federal, state and local government web resources and services.